Terminal Aerodrome Forecast
Issued by NWS Memphis, TN

Home | Current Version | Previous Version | Text Only | Print | Product List | Glossary On
Versions: 1 2 3 4 5 6 7 8 9 10 11 12 13 14 15 16 17 18 19 20 21 22 23 24
583
FTUS44 KMEG 041131
TAFMEM
TAF
KMEM 041131Z 0412/0512 10006KT 5SM BR VCSH OVC005
      TEMPO 0412/0414 3SM -RA OVC003
     FM041600 34004KT 5SM BR OVC009
     FM042000 33005KT 5SM BR OVC015
     FM050300 01005KT 5SM BR SCT015 BKN080=

USA.gov is the U.S. government's official web portal to all federal, state and local government web resources and services.